Terminal Aerodrome Forecast
Issued by NWS

Home | Current Version | Previous Version | Text Only | Print | Product List | Glossary Off
Versions: 1 2 3 4 5 6 7 8 9 10 11 12 13 14 15

709
FTUS43 KICT 252320
TAFRSL
TAF
KRSL 252320Z 2600/2624 01014KT P6SM VCSH OVC025
     FM260200 01015G22KT P6SM OVC015
     FM260900 34016G23KT P6SM OVC025
     FM261500 34016G24KT P6SM SCT035 BKN150=

USA.gov is the U.S. government's official web portal to all federal, state and local government web resources and services.